sensor_id;sensor_type;location;lat;lon;timestamp;pressure;altitude;pressure_sealevel;temperature;humidity
5062;BME280;2351;50.812;12.872;2023-10-13T00:02:19;97812.13;;;14.72;100.00
5062;BME280;2351;50.812;12.872;2023-10-13T00:04:53;97809.97;;;14.75;100.00
5062;BME280;2351;50.812;12.872;2023-10-13T00:07:24;97815.47;;;14.74;100.00
5062;BME280;2351;50.812;12.872;2023-10-13T00:09:57;97816.47;;;14.73;100.00
5062;BME280;2351;50.812;12.872;2023-10-13T00:12:31;97822.63;;;14.73;100.00
5062;BME280;2351;50.812;12.872;2023-10-13T00:15:07;97824.28;;;14.74;100.00
5062;BME280;2351;50.812;12.872;2023-10-13T00:17:44;97821.63;;;14.74;100.00
5062;BME280;2351;50.812;12.872;2023-10-13T00:20:15;97819.97;;;14.73;100.00
5062;BME280;2351;50.812;12.872;2023-10-13T00:22:58;97824.47;;;14.73;100.00
5062;BME280;2351;50.812;12.872;2023-10-13T00:25:30;97826.13;;;14.74;100.00
5062;BME280;2351;50.812;12.872;2023-10-13T00:28:15;97824.28;;;14.74;100.00
5062;BME280;2351;50.812;12.872;2023-10-13T00:30:54;97819.63;;;14.76;100.00
5062;BME280;2351;50.812;12.872;2023-10-13T00:33:31;97815.81;;;14.79;100.00
5062;BME280;2351;50.812;12.872;2023-10-13T00:36:03;97821.97;;;14.80;100.00
5062;BME280;2351;50.812;12.872;2023-10-13T00:38:35;97819.50;;;14.78;100.00
5062;BME280;2351;50.812;12.872;2023-10-13T00:41:07;97818.47;;;14.79;100.00
5062;BME280;2351;50.812;12.872;2023-10-13T00:43:47;97815.66;;;14.81;100.00
5062;BME280;2351;50.812;12.872;2023-10-13T00:46:35;97818.31;;;14.81;100.00
5062;BME280;2351;50.812;12.872;2023-10-13T00:49:08;97816.34;;;14.83;100.00
5062;BME280;2351;50.812;12.872;2023-10-13T00:51:39;97805.69;;;14.83;100.00
5062;BME280;2351;50.812;12.872;2023-10-13T00:54:17;97809.84;;;14.85;100.00
5062;BME280;2351;50.812;12.872;2023-10-13T00:56:58;97806.19;;;14.86;100.00
5062;BME280;2351;50.812;12.872;2023-10-13T00:59:36;97813.03;;;14.89;100.00
5062;BME280;2351;50.812;12.872;2023-10-13T01:02:08;97816.50;;;14.89;100.00
5062;BME280;2351;50.812;12.872;2023-10-13T01:04:54;97817.31;;;14.90;100.00
5062;BME280;2351;50.812;12.872;2023-10-13T01:07:25;97814.53;;;14.91;100.00
5062;BME280;2351;50.812;12.872;2023-10-13T01:09:56;97811.69;;;14.93;100.00
5062;BME280;2351;50.812;12.872;2023-10-13T01:12:28;97817.00;;;14.93;100.00
5062;BME280;2351;50.812;12.872;2023-10-13T01:15:04;97824.31;;;14.91;100.00
5062;BME280;2351;50.812;12.872;2023-10-13T01:17:38;97824.31;;;14.91;100.00
5062;BME280;2351;50.812;12.872;2023-10-13T01:20:09;97830.34;;;14.93;100.00
5062;BME280;2351;50.812;12.872;2023-10-13T01:22:43;97836.66;;;14.92;100.00
5062;BME280;2351;50.812;12.872;2023-10-13T01:25:16;97831.50;;;14.90;100.00
5062;BME280;2351;50.812;12.872;2023-10-13T01:27:49;97838.31;;;14.93;100.00
5062;BME280;2351;50.812;12.872;2023-10-13T01:30:22;97838.31;;;14.93;100.00
5062;BME280;2351;50.812;12.872;2023-10-13T01:32:55;97835.50;;;14.95;100.00
5062;BME280;2351;50.812;12.872;2023-10-13T01:35:30;97830.19;;;14.95;100.00
5062;BME280;2351;50.812;12.872;2023-10-13T01:38:07;97828.19;;;14.97;100.00
5062;BME280;2351;50.812;12.872;2023-10-13T01:40:39;97835.19;;;14.98;100.00
5062;BME280;2351;50.812;12.872;2023-10-13T01:43:13;97827.19;;;14.98;100.00
5062;BME280;2351;50.812;12.872;2023-10-13T01:45:45;97826.53;;;14.96;100.00
5062;BME280;2351;50.812;12.872;2023-10-13T01:48:19;97825.00;;;14.93;100.00
5062;BME280;2351;50.812;12.872;2023-10-13T01:50:56;97827.34;;;14.96;100.00
5062;BME280;2351;50.812;12.872;2023-10-13T01:53:31;97819.03;;;14.99;100.00
5062;BME280;2351;50.812;12.872;2023-10-13T01:56:04;97823.69;;;14.97;100.00
5062;BME280;2351;50.812;12.872;2023-10-13T01:58:41;97812.22;;;14.97;100.00
5062;BME280;2351;50.812;12.872;2023-10-13T02:01:18;97803.22;;;14.98;100.00
5062;BME280;2351;50.812;12.872;2023-10-13T02:03:57;97808.53;;;14.98;100.00
5062;BME280;2351;50.812;12.872;2023-10-13T02:06:34;97805.69;;;14.99;100.00
5062;BME280;2351;50.812;12.872;2023-10-13T02:09:07;97809.38;;;14.98;100.00
5062;BME280;2351;50.812;12.872;2023-10-13T02:11:44;97807.38;;;15.00;100.00
5062;BME280;2351;50.812;12.872;2023-10-13T02:14:17;97808.53;;;14.98;100.00
5062;BME280;2351;50.812;12.872;2023-10-13T02:16:48;97804.03;;;14.98;100.00
5062;BME280;2351;50.812;12.872;2023-10-13T02:19:21;97795.72;;;15.01;100.00
5062;BME280;2351;50.812;12.872;2023-10-13T02:21:51;97801.88;;;15.02;100.00
5062;BME280;2351;50.812;12.872;2023-10-13T02:24:29;97807.19;;;15.02;100.00
5062;BME280;2351;50.812;12.872;2023-10-13T02:27:02;97801.22;;;15.00;100.00
5062;BME280;2351;50.812;12.872;2023-10-13T02:29:35;97809.03;;;15.01;100.00
5062;BME280;2351;50.812;12.872;2023-10-13T02:32:09;97809.03;;;15.01;100.00
5062;BME280;2351;50.812;12.872;2023-10-13T02:34:49;97808.88;;;15.03;100.00
5062;BME280;2351;50.812;12.872;2023-10-13T02:37:19;97802.53;;;15.04;100.00
5062;BME280;2351;50.812;12.872;2023-10-13T02:39:51;97798.06;;;15.04;100.00
5062;BME280;2351;50.812;12.872;2023-10-13T02:42:23;97789.75;;;15.08;100.00
5062;BME280;2351;50.812;12.872;2023-10-13T02:44:55;97792.41;;;15.08;100.00
5062;BME280;2351;50.812;12.872;2023-10-13T02:47:28;97787.56;;;15.11;100.00
5062;BME280;2351;50.812;12.872;2023-10-13T02:50:02;97787.56;;;15.11;100.00
5062;BME280;2351;50.812;12.872;2023-10-13T02:52:42;97778.09;;;15.09;100.00
5062;BME280;2351;50.812;12.872;2023-10-13T02:55:18;97780.75;;;15.09;100.00
5062;BME280;2351;50.812;12.872;2023-10-13T02:57:57;97770.41;;;15.05;100.00
5062;BME280;2351;50.812;12.872;2023-10-13T03:00:29;97771.09;;;15.08;100.00
5062;BME280;2351;50.812;12.872;2023-10-13T03:03:02;97782.56;;;15.08;100.00
5062;BME280;2351;50.812;12.872;2023-10-13T03:05:34;97770.09;;;15.09;100.00
5062;BME280;2351;50.812;12.872;2023-10-13T03:08:09;97771.09;;;15.08;100.00
5062;BME280;2351;50.812;12.872;2023-10-13T03:10:41;97764.75;;;15.09;100.00
5062;BME280;2351;50.812;12.872;2023-10-13T03:13:20;97760.41;;;15.08;100.00
5062;BME280;2351;50.812;12.872;2023-10-13T03:15:51;97764.91;;;15.07;100.00
5062;BME280;2351;50.812;12.872;2023-10-13T03:18:25;97764.09;;;15.06;100.00
5062;BME280;2351;50.812;12.872;2023-10-13T03:20:56;97772.22;;;15.05;100.00
5062;BME280;2351;50.812;12.872;2023-10-13T03:23:27;97765.22;;;15.04;100.00
5062;BME280;2351;50.812;12.872;2023-10-13T03:26:00;97761.75;;;15.03;100.00
5062;BME280;2351;50.812;12.872;2023-10-13T03:28:40;97762.75;;;15.02;100.00
5062;BME280;2351;50.812;12.872;2023-10-13T03:31:10;97760.06;;;15.02;100.00
5062;BME280;2351;50.812;12.872;2023-10-13T03:33:48;97753.75;;;15.03;100.00
5062;BME280;2351;50.812;12.872;2023-10-13T03:36:27;97758.75;;;15.06;100.00
5062;BME280;2351;50.812;12.872;2023-10-13T03:39:15;97753.75;;;15.03;100.00
5062;BME280;2351;50.812;12.872;2023-10-13T03:41:47;97742.09;;;15.04;100.00
5062;BME280;2351;50.812;12.872;2023-10-13T03:44:25;97744.75;;;15.04;100.00
5062;BME280;2351;50.812;12.872;2023-10-13T03:47:00;97753.44;;;15.06;100.00
5062;BME280;2351;50.812;12.872;2023-10-13T03:49:48;97743.59;;;15.07;100.00
5062;BME280;2351;50.812;12.872;2023-10-13T03:52:21;97741.91;;;15.06;100.00
5062;BME280;2351;50.812;12.872;2023-10-13T03:54:55;97733.09;;;15.05;100.00
5062;BME280;2351;50.812;12.872;2023-10-13T03:57:29;97740.25;;;15.05;100.00
5062;BME280;2351;50.812;12.872;2023-10-13T04:00:07;97743.91;;;15.04;100.00
5062;BME280;2351;50.812;12.872;2023-10-13T04:02:39;97738.59;;;15.04;100.00
5062;BME280;2351;50.812;12.872;2023-10-13T04:05:16;97738.59;;;15.04;100.00
5062;BME280;2351;50.812;12.872;2023-10-13T04:08:05;97741.09;;;15.05;100.00
5062;BME280;2351;50.812;12.872;2023-10-13T04:10:56;97738.75;;;15.02;100.00
5062;BME280;2351;50.812;12.872;2023-10-13T04:13:45;97724.75;;;15.00;100.00
5062;BME280;2351;50.812;12.872;2023-10-13T04:16:50;97728.44;;;14.99;100.00
5062;BME280;2351;50.812;12.872;2023-10-13T04:19:25;97728.44;;;14.99;100.00
5062;BME280;2351;50.812;12.872;2023-10-13T04:21:59;97730.28;;;14.99;100.00
5062;BME280;2351;50.812;12.872;2023-10-13T04:24:48;97729.44;;;14.98;100.00
5062;BME280;2351;50.812;12.872;2023-10-13T04:27:30;97726.09;;;14.96;100.00
5062;BME280;2351;50.812;12.872;2023-10-13T04:30:24;97728.94;;;14.95;100.00
5062;BME280;2351;50.812;12.872;2023-10-13T04:33:10;97719.75;;;14.97;100.00
5062;BME280;2351;50.812;12.872;2023-10-13T04:36:07;97720.75;;;14.96;100.00
5062;BME280;2351;50.812;12.872;2023-10-13T04:38:44;97727.75;;;14.97;100.00
5062;BME280;2351;50.812;12.872;2023-10-13T04:41:28;97727.94;;;14.96;100.00
5062;BME280;2351;50.812;12.872;2023-10-13T04:44:01;97729.94;;;14.94;100.00
5062;BME280;2351;50.812;12.872;2023-10-13T04:46:54;97723.75;;;14.93;100.00
5062;BME280;2351;50.812;12.872;2023-10-13T04:49:40;97722.94;;;14.93;100.00
5062;BME280;2351;50.812;12.872;2023-10-13T04:52:24;97720.09;;;14.94;100.00
5062;BME280;2351;50.812;12.872;2023-10-13T04:55:33;97720.75;;;14.96;100.00
5062;BME280;2351;50.812;12.872;2023-10-13T04:58:30;97721.94;;;14.94;100.00
5062;BME280;2351;50.812;12.872;2023-10-13T05:01:32;97720.28;;;14.93;100.00
5062;BME280;2351;50.812;12.872;2023-10-13T05:04:21;97723.09;;;14.99;100.00
5062;BME280;2351;50.812;12.872;2023-10-13T05:07:09;97721.28;;;15.00;100.00
5062;BME280;2351;50.812;12.872;2023-10-13T05:09:58;97717.78;;;14.99;100.00
5062;BME280;2351;50.812;12.872;2023-10-13T05:12:47;97714.09;;;15.00;100.00
5062;BME280;2351;50.812;12.872;2023-10-13T05:15:42;97707.78;;;15.01;100.00
5062;BME280;2351;50.812;12.872;2023-10-13T05:18:32;97716.78;;;15.00;100.00
5062;BME280;2351;50.812;12.872;2023-10-13T05:21:21;97721.09;;;15.01;100.00
5062;BME280;2351;50.812;12.872;2023-10-13T05:24:12;97727.44;;;15.00;100.00
5062;BME280;2351;50.812;12.872;2023-10-13T05:27:06;97720.25;;;15.01;100.00
5062;BME280;2351;50.812;12.872;2023-10-13T05:29:55;97720.91;;;15.03;100.00
5062;BME280;2351;50.812;12.872;2023-10-13T05:32:52;97724.44;;;15.03;100.00
5062;BME280;2351;50.812;12.872;2023-10-13T05:35:42;97724.25;;;15.05;100.00
5062;BME280;2351;50.812;12.872;2023-10-13T05:38:31;97720.28;;;15.09;100.00
5062;BME280;2351;50.812;12.872;2023-10-13T05:41:22;97721.94;;;15.10;100.00
5062;BME280;2351;50.812;12.872;2023-10-13T05:44:11;97733.44;;;15.11;100.00
5062;BME280;2351;50.812;12.872;2023-10-13T05:47:00;97740.41;;;15.12;100.00
5062;BME280;2351;50.812;12.872;2023-10-13T05:50:05;97726.94;;;15.13;100.00
5062;BME280;2351;50.812;12.872;2023-10-13T05:52:43;97727.59;;;15.15;100.00
5062;BME280;2351;50.812;12.872;2023-10-13T05:55:32;97729.28;;;15.16;100.00
5062;BME280;2351;50.812;12.872;2023-10-13T05:58:22;97730.59;;;15.20;100.00
5062;BME280;2351;50.812;12.872;2023-10-13T06:01:12;97734.75;;;15.23;100.00
5062;BME280;2351;50.812;12.872;2023-10-13T06:04:02;97727.44;;;15.25;100.00
5062;BME280;2351;50.812;12.872;2023-10-13T06:06:51;97728.91;;;15.28;100.00
5062;BME280;2351;50.812;12.872;2023-10-13T06:09:40;97732.94;;;15.32;100.00
5062;BME280;2351;50.812;12.872;2023-10-13T06:12:29;97729.06;;;15.34;100.00
5062;BME280;2351;50.812;12.872;2023-10-13T06:15:20;97729.59;;;15.38;100.00
5062;BME280;2351;50.812;12.872;2023-10-13T06:18:09;97728.09;;;15.44;100.00
5062;BME280;2351;50.812;12.872;2023-10-13T06:21:00;97736.75;;;15.46;100.00
5062;BME280;2351;50.812;12.872;2023-10-13T06:23:50;97734.91;;;15.46;100.00
5062;BME280;2351;50.812;12.872;2023-10-13T06:26:39;97731.91;;;15.49;100.00
5062;BME280;2351;50.812;12.872;2023-10-13T06:29:28;97725.56;;;15.50;100.00
5062;BME280;2351;50.812;12.872;2023-10-13T06:32:02;97740.22;;;15.55;100.00
5062;BME280;2351;50.812;12.872;2023-10-13T06:34:40;97734.38;;;15.59;100.00
5062;BME280;2351;50.812;12.872;2023-10-13T06:37:15;97741.38;;;15.60;100.00
5062;BME280;2351;50.812;12.872;2023-10-13T06:39:57;97733.06;;;15.63;100.00
5062;BME280;2351;50.812;12.872;2023-10-13T06:42:36;97738.53;;;15.70;100.00
5062;BME280;2351;50.812;12.872;2023-10-13T06:45:12;97730.38;;;15.72;100.00
5062;BME280;2351;50.812;12.872;2023-10-13T06:47:48;97733.38;;;15.77;100.00
5062;BME280;2351;50.812;12.872;2023-10-13T06:50:23;97727.88;;;15.87;100.00
5062;BME280;2351;50.812;12.872;2023-10-13T06:52:55;97723.00;;;15.90;100.00
5062;BME280;2351;50.812;12.872;2023-10-13T06:55:27;97717.69;;;15.90;100.00
5062;BME280;2351;50.812;12.872;2023-10-13T06:58:05;97713.66;;;15.94;100.00
5062;BME280;2351;50.812;12.872;2023-10-13T07:00:37;97716.28;;;16.03;100.00
5062;BME280;2351;50.812;12.872;2023-10-13T07:03:12;97717.63;;;16.07;100.00
5062;BME280;2351;50.812;12.872;2023-10-13T07:05:48;97711.94;;;16.10;100.00
5062;BME280;2351;50.812;12.872;2023-10-13T07:08:19;97720.25;;;16.15;100.00
5062;BME280;2351;50.812;12.872;2023-10-13T07:10:52;97705.56;;;16.19;100.00
5062;BME280;2351;50.812;12.872;2023-10-13T07:13:32;97713.69;;;16.26;100.00
5062;BME280;2351;50.812;12.872;2023-10-13T07:16:07;97727.88;;;16.26;100.00
5062;BME280;2351;50.812;12.872;2023-10-13T07:18:44;97721.84;;;16.33;100.00
5062;BME280;2351;50.812;12.872;2023-10-13T07:21:23;97705.47;;;16.36;100.00
5062;BME280;2351;50.812;12.872;2023-10-13T07:24:01;97699.78;;;16.39;100.00
5062;BME280;2351;50.812;12.872;2023-10-13T07:26:38;97701.38;;;16.48;100.00
5062;BME280;2351;50.812;12.872;2023-10-13T07:29:15;97702.16;;;16.57;100.00
5062;BME280;2351;50.812;12.872;2023-10-13T07:31:47;97708.31;;;16.66;100.00
5062;BME280;2351;50.812;12.872;2023-10-13T07:34:21;97697.56;;;16.74;100.00
5062;BME280;2351;50.812;12.872;2023-10-13T07:36:56;97692.31;;;16.81;100.00
5062;BME280;2351;50.812;12.872;2023-10-13T07:39:31;97693.75;;;16.92;100.00
5062;BME280;2351;50.812;12.872;2023-10-13T07:42:04;97695.09;;;16.96;100.00
5062;BME280;2351;50.812;12.872;2023-10-13T07:44:45;97690.59;;;16.96;100.00
5062;BME280;2351;50.812;12.872;2023-10-13T07:47:17;97691.00;;;17.08;100.00
5062;BME280;2351;50.812;12.872;2023-10-13T07:49:52;97682.59;;;17.11;100.00
5062;BME280;2351;50.812;12.872;2023-10-13T07:52:27;97671.53;;;17.14;100.00
5062;BME280;2351;50.812;12.872;2023-10-13T07:55:07;97676.63;;;17.24;100.00
5062;BME280;2351;50.812;12.872;2023-10-13T07:57:50;97662.75;;;17.29;100.00
5062;BME280;2351;50.812;12.872;2023-10-13T08:00:26;97665.66;;;17.34;100.00
5062;BME280;2351;50.812;12.872;2023-10-13T08:02:59;97661.09;;;17.43;100.00
5062;BME280;2351;50.812;12.872;2023-10-13T08:05:53;97668.84;;;17.68;100.00
5062;BME280;2351;50.812;12.872;2023-10-13T08:08:29;97664.03;;;17.93;100.00
5062;BME280;2351;50.812;12.872;2023-10-13T08:11:05;97667.56;;;18.09;100.00
5062;BME280;2351;50.812;12.872;2023-10-13T08:13:41;97670.31;;;18.15;100.00
5062;BME280;2351;50.812;12.872;2023-10-13T08:16:16;97660.88;;;18.19;100.00
5062;BME280;2351;50.812;12.872;2023-10-13T08:18:52;97655.72;;;18.18;100.00
5062;BME280;2351;50.812;12.872;2023-10-13T08:21:25;97665.03;;;18.22;100.00
5062;BME280;2351;50.812;12.872;2023-10-13T08:24:02;97652.28;;;18.24;100.00
5062;BME280;2351;50.812;12.872;2023-10-13T08:26:38;97658.66;;;18.23;100.00
5062;BME280;2351;50.812;12.872;2023-10-13T08:29:28;97645.91;;;18.25;100.00
5062;BME280;2351;50.812;12.872;2023-10-13T08:32:16;97644.34;;;18.31;100.00
5062;BME280;2351;50.812;12.872;2023-10-13T08:35:06;97639.69;;;18.40;100.00
5062;BME280;2351;50.812;12.872;2023-10-13T08:37:54;97646.50;;;18.42;100.00
5062;BME280;2351;50.812;12.872;2023-10-13T08:40:35;97640.72;;;18.39;100.00
5062;BME280;2351;50.812;12.872;2023-10-13T08:43:49;97644.41;;;18.38;100.00
5062;BME280;2351;50.812;12.872;2023-10-13T08:46:21;97646.63;;;18.34;100.00
5062;BME280;2351;50.812;12.872;2023-10-13T08:48:59;97650.13;;;18.34;100.00
5062;BME280;2351;50.812;12.872;2023-10-13T08:51:40;97650.72;;;18.30;100.00
5062;BME280;2351;50.812;12.872;2023-10-13T08:54:17;97661.28;;;18.38;100.00
5062;BME280;2351;50.812;12.872;2023-10-13T08:57:05;97655.75;;;18.40;100.00
5062;BME280;2351;50.812;12.872;2023-10-13T09:00:04;97654.22;;;18.30;100.00
5062;BME280;2351;50.812;12.872;2023-10-13T09:02:49;97651.16;;;18.33;100.00
5062;BME280;2351;50.812;12.872;2023-10-13T09:05:53;97653.94;;;18.25;100.00
5062;BME280;2351;50.812;12.872;2023-10-13T09:08:36;97663.38;;;18.21;100.00
5062;BME280;2351;50.812;12.872;2023-10-13T09:11:16;97658.41;;;18.18;100.00
5062;BME280;2351;50.812;12.872;2023-10-13T09:13:56;97658.00;;;18.21;100.00
5062;BME280;2351;50.812;12.872;2023-10-13T09:16:34;97648.72;;;18.17;100.00
5062;BME280;2351;50.812;12.872;2023-10-13T09:19:48;97653.94;;;18.25;100.00
5062;BME280;2351;50.812;12.872;2023-10-13T09:22:20;97640.91;;;18.22;100.00
5062;BME280;2351;50.812;12.872;2023-10-13T09:24:57;97645.25;;;18.23;100.00
5062;BME280;2351;50.812;12.872;2023-10-13T09:27:32;97647.28;;;18.21;100.00
5062;BME280;2351;50.812;12.872;2023-10-13T09:30:05;97643.72;;;18.14;100.00
5062;BME280;2351;50.812;12.872;2023-10-13T09:32:40;97639.66;;;18.18;100.00
5062;BME280;2351;50.812;12.872;2023-10-13T09:35:18;97635.41;;;18.09;100.00
5062;BME280;2351;50.812;12.872;2023-10-13T09:37:53;97637.47;;;18.06;100.00
5062;BME280;2351;50.812;12.872;2023-10-13T09:40:27;97637.09;;;18.10;100.00
5062;BME280;2351;50.812;12.872;2023-10-13T09:43:05;97636.28;;;18.09;100.00
5062;BME280;2351;50.812;12.872;2023-10-13T09:45:38;97624.97;;;18.14;100.00
5062;BME280;2351;50.812;12.872;2023-10-13T09:48:13;97629.59;;;18.20;100.00
5062;BME280;2351;50.812;12.872;2023-10-13T09:50:49;97617.84;;;18.21;100.00
5062;BME280;2351;50.812;12.872;2023-10-13T09:53:19;97629.47;;;18.28;100.00
5062;BME280;2351;50.812;12.872;2023-10-13T09:55:58;97622.91;;;18.31;100.00
5062;BME280;2351;50.812;12.872;2023-10-13T09:58:48;97619.66;;;18.35;100.00
5062;BME280;2351;50.812;12.872;2023-10-13T10:01:28;97628.50;;;18.36;100.00
5062;BME280;2351;50.812;12.872;2023-10-13T10:04:09;97620.31;;;18.38;100.00
5062;BME280;2351;50.812;12.872;2023-10-13T10:06:51;97621.38;;;18.43;100.00
5062;BME280;2351;50.812;12.872;2023-10-13T10:09:26;97617.56;;;18.52;100.00
5062;BME280;2351;50.812;12.872;2023-10-13T10:12:21;97619.41;;;18.52;100.00
5062;BME280;2351;50.812;12.872;2023-10-13T10:15:07;97611.00;;;18.55;100.00
5062;BME280;2351;50.812;12.872;2023-10-13T10:17:44;97611.00;;;18.55;100.00
5062;BME280;2351;50.812;12.872;2023-10-13T10:20:16;97618.00;;;18.56;100.00
5062;BME280;2351;50.812;12.872;2023-10-13T10:22:57;97614.16;;;18.65;100.00
5062;BME280;2351;50.812;12.872;2023-10-13T10:25:31;97613.41;;;18.72;100.00
5062;BME280;2351;50.812;12.872;2023-10-13T10:28:06;97607.28;;;18.78;100.00
5062;BME280;2351;50.812;12.872;2023-10-13T10:30:40;97601.31;;;18.82;100.00
5062;BME280;2351;50.812;12.872;2023-10-13T10:33:12;97597.28;;;18.93;100.00
5062;BME280;2351;50.812;12.872;2023-10-13T10:35:46;97598.84;;;19.03;100.00
5062;BME280;2351;50.812;12.872;2023-10-13T10:38:19;97596.25;;;19.16;100.00
5062;BME280;2351;50.812;12.872;2023-10-13T10:41:04;97596.28;;;19.23;100.00
5062;BME280;2351;50.812;12.872;2023-10-13T10:43:37;97586.69;;;19.35;100.00
5062;BME280;2351;50.812;12.872;2023-10-13T10:46:18;97589.25;;;19.50;100.00
5062;BME280;2351;50.812;12.872;2023-10-13T10:48:57;97571.56;;;19.69;100.00
5062;BME280;2351;50.812;12.872;2023-10-13T10:51:33;97567.50;;;19.87;100.00
5062;BME280;2351;50.812;12.872;2023-10-13T10:54:05;97568.22;;;20.02;100.00
5062;BME280;2351;50.812;12.872;2023-10-13T10:56:42;97550.91;;;20.19;97.74
5062;BME280;2351;50.812;12.872;2023-10-13T10:59:14;97555.03;;;20.28;96.91
5062;BME280;2351;50.812;12.872;2023-10-13T11:01:50;97549.25;;;20.31;95.89
5062;BME280;2351;50.812;12.872;2023-10-13T11:04:22;97548.44;;;20.30;94.74
5062;BME280;2351;50.812;12.872;2023-10-13T11:07:04;97552.16;;;20.29;92.42
5062;BME280;2351;50.812;12.872;2023-10-13T11:09:36;97541.81;;;20.26;90.98
5062;BME280;2351;50.812;12.872;2023-10-13T11:12:15;97537.66;;;20.17;92.52
5062;BME280;2351;50.812;12.872;2023-10-13T11:15:01;97541.59;;;20.21;90.85
5062;BME280;2351;50.812;12.872;2023-10-13T11:17:37;97536.00;;;20.09;91.50
5062;BME280;2351;50.812;12.872;2023-10-13T11:20:19;97532.91;;;20.06;91.62
5062;BME280;2351;50.812;12.872;2023-10-13T11:22:57;97522.75;;;20.01;90.37
5062;BME280;2351;50.812;12.872;2023-10-13T11:25:32;97533.31;;;20.02;91.14
5062;BME280;2351;50.812;12.872;2023-10-13T11:28:12;97522.34;;;20.04;91.24
5062;BME280;2351;50.812;12.872;2023-10-13T11:30:50;97521.94;;;20.07;90.38
5062;BME280;2351;50.812;12.872;2023-10-13T11:33:23;97513.88;;;20.00;89.83
5062;BME280;2351;50.812;12.872;2023-10-13T11:35:57;97509.31;;;20.01;90.03
5062;BME280;2351;50.812;12.872;2023-10-13T11:38:34;97505.59;;;20.02;89.13
5062;BME280;2351;50.812;12.872;2023-10-13T11:41:13;97494.06;;;20.08;88.66
5062;BME280;2351;50.812;12.872;2023-10-13T11:43:50;97488.69;;;20.15;88.37
5062;BME280;2351;50.812;12.872;2023-10-13T11:46:43;97491.41;;;20.35;88.29
5062;BME280;2351;50.812;12.872;2023-10-13T11:49:27;97483.75;;;20.66;88.01
5062;BME280;2351;50.812;12.872;2023-10-13T11:52:07;97481.91;;;20.80;87.49
5062;BME280;2351;50.812;12.872;2023-10-13T11:54:48;97478.19;;;20.81;84.83
5062;BME280;2351;50.812;12.872;2023-10-13T11:57:19;97470.47;;;20.98;83.66
5062;BME280;2351;50.812;12.872;2023-10-13T11:59:51;97472.34;;;20.97;82.79
5062;BME280;2351;50.812;12.872;2023-10-13T12:02:46;97458.84;;;21.11;82.71
5062;BME280;2351;50.812;12.872;2023-10-13T12:05:37;97464.56;;;21.34;82.30
5062;BME280;2351;50.812;12.872;2023-10-13T12:08:36;97462.78;;;21.60;78.57
5062;BME280;2351;50.812;12.872;2023-10-13T12:11:19;97451.53;;;21.77;77.71
5062;BME280;2351;50.812;12.872;2023-10-13T12:14:03;97438.78;;;21.97;75.56
5062;BME280;2351;50.812;12.872;2023-10-13T12:16:42;97441.88;;;22.26;75.08
5062;BME280;2351;50.812;12.872;2023-10-13T12:19:20;97441.19;;;22.38;71.85
5062;BME280;2351;50.812;12.872;2023-10-13T12:21:56;97432.13;;;22.58;70.45
5062;BME280;2351;50.812;12.872;2023-10-13T12:24:28;97425.91;;;22.76;69.09
5062;BME280;2351;50.812;12.872;2023-10-13T12:27:10;97431.63;;;23.05;64.75
5062;BME280;2351;50.812;12.872;2023-10-13T12:29:52;97418.22;;;22.98;64.64
5062;BME280;2351;50.812;12.872;2023-10-13T12:32:26;97424.50;;;22.92;65.90
5062;BME280;2351;50.812;12.872;2023-10-13T12:35:01;97415.00;;;22.89;65.79
5062;BME280;2351;50.812;12.872;2023-10-13T12:38:00;97418.22;;;22.79;65.55
5062;BME280;2351;50.812;12.872;2023-10-13T12:40:36;97416.91;;;22.63;65.77
5062;BME280;2351;50.812;12.872;2023-10-13T12:43:25;97423.41;;;22.55;65.93
5062;BME280;2351;50.812;12.872;2023-10-13T12:46:14;97422.03;;;22.46;65.82
5062;BME280;2351;50.812;12.872;2023-10-13T12:49:03;97420.19;;;22.40;66.70
5062;BME280;2351;50.812;12.872;2023-10-13T12:51:48;97415.00;;;22.45;65.77
5062;BME280;2351;50.812;12.872;2023-10-13T12:54:24;97407.31;;;22.42;65.51
5062;BME280;2351;50.812;12.872;2023-10-13T12:57:05;97405.25;;;22.44;66.11
5062;BME280;2351;50.812;12.872;2023-10-13T12:59:39;97402.75;;;22.68;63.95
5062;BME280;2351;50.812;12.872;2023-10-13T13:02:11;97395.72;;;22.67;65.00
5062;BME280;2351;50.812;12.872;2023-10-13T13:04:45;97391.97;;;22.68;65.02
5062;BME280;2351;50.812;12.872;2023-10-13T13:07:21;97390.25;;;22.74;65.22
5062;BME280;2351;50.812;12.872;2023-10-13T13:09:54;97382.78;;;22.94;63.69
5062;BME280;2351;50.812;12.872;2023-10-13T13:12:29;97375.31;;;23.08;63.71
5062;BME280;2351;50.812;12.872;2023-10-13T13:15:00;97365.81;;;23.06;63.58
5062;BME280;2351;50.812;12.872;2023-10-13T13:17:38;97363.25;;;23.11;62.60
5062;BME280;2351;50.812;12.872;2023-10-13T13:20:10;97361.16;;;23.13;63.29
5062;BME280;2351;50.812;12.872;2023-10-13T13:22:55;97362.72;;;23.21;62.99
5062;BME280;2351;50.812;12.872;2023-10-13T13:25:34;97352.59;;;23.35;62.84
5062;BME280;2351;50.812;12.872;2023-10-13T13:28:13;97355.16;;;23.29;61.41
5062;BME280;2351;50.812;12.872;2023-10-13T13:30:45;97348.84;;;23.36;62.25
5062;BME280;2351;50.812;12.872;2023-10-13T13:33:21;97347.22;;;23.35;60.38
5062;BME280;2351;50.812;12.872;2023-10-13T13:35:56;97348.00;;;23.35;61.02
5062;BME280;2351;50.812;12.872;2023-10-13T13:38:30;97348.41;;;23.39;61.58
5062;BME280;2351;50.812;12.872;2023-10-13T13:41:03;97337.72;;;23.44;60.45
5062;BME280;2351;50.812;12.872;2023-10-13T13:43:39;97329.50;;;23.51;58.81
5062;BME280;2351;50.812;12.872;2023-10-13T13:46:21;97333.16;;;23.44;59.82
5062;BME280;2351;50.812;12.872;2023-10-13T13:48:55;97318.00;;;23.43;59.00
5062;BME280;2351;50.812;12.872;2023-10-13T13:51:30;97323.47;;;23.25;57.44
5062;BME280;2351;50.812;12.872;2023-10-13T13:54:02;97319.47;;;23.27;58.23
5062;BME280;2351;50.812;12.872;2023-10-13T13:56:38;97318.78;;;23.32;57.83
5062;BME280;2351;50.812;12.872;2023-10-13T13:59:10;97303.31;;;23.39;58.11
5062;BME280;2351;50.812;12.872;2023-10-13T14:01:46;97310.25;;;23.47;57.33
5062;BME280;2351;50.812;12.872;2023-10-13T14:04:17;97305.31;;;23.44;57.32
5062;BME280;2351;50.812;12.872;2023-10-13T14:06:49;97309.78;;;23.38;56.08